Time,TemperatureF,DewpointF,PressureIn,WindDirection,WindDirectionDegrees,WindSpeedMPH,WindSpeedGustMPH,Humidity,HourlyPrecipIn,Conditions,Clouds,dailyrainin,SoftwareType,DateUTC
2013-08-02 00:00:00,61.6,59.6,30.32,West,262,0.0,0.0,93,0.00,SCT,,0.42,WeatherDisplay:10.37,2013-08-02 04:00:00,
2013-08-02 00:01:00,61.6,59.9,30.32,West,262,0.0,0.0,94,0.00,RA,,0.00,WeatherDisplay:10.37,2013-08-02 04:01:00,
2013-08-02 00:02:00,61.6,60.2,30.32,West,262,1.2,0.0,95,0.00,RA,,0.00,WeatherDisplay:10.37,2013-08-02 04:02:00,
2013-08-02 00:04:00,61.5,60.1,30.32,West,262,0.0,0.0,95,0.00,RA,,0.00,WeatherDisplay:10.37,2013-08-02 04:04:00,
2013-08-02 00:09:00,61.2,59.8,30.32,West,262,0.0,0.0,95,0.00,RA,,0.00,WeatherDisplay:10.37,2013-08-02 04:09:00,
2013-08-02 00:14:00,61.1,59.7,30.32,West,262,1.2,0.0,95,0.00,SCT,,0.00,WeatherDisplay:10.37,2013-08-02 04:14:00,
2013-08-02 00:16:00,61.0,59.6,30.32,West,262,0.0,0.0,95,0.00,SCT,,0.00,WeatherDisplay:10.37,2013-08-02 04:16:00,
2013-08-02 00:21:00,60.6,59.2,30.32,West,262,0.0,0.0,95,0.00,SCT,,0.00,WeatherDisplay:10.37,2013-08-02 04:21:00,
2013-08-02 00:26:00,60.2,58.8,30.32,West,262,0.0,0.0,95,0.00,SCT,,0.00,WeatherDisplay:10.37,2013-08-02 04:26:00,
2013-08-02 00:31:00,60.1,59.0,30.32,West,262,0.0,0.0,96,0.00,SCT,,0.00,WeatherDisplay:10.37,2013-08-02 04:31:00,
2013-08-02 00:37:00,59.9,58.8,30.32,West,262,0.0,0.0,96,0.00,SCT,,0.00,WeatherDisplay:10.37,2013-08-02 04:37:00,
2013-08-02 00:42:00,59.9,59.0,30.32,West,262,0.0,0.0,97,0.00,SCT,,0.00,WeatherDisplay:10.37,2013-08-02 04:42:00,
2013-08-02 00:47:00,59.8,58.7,30.32,West,262,1.2,1.2,96,0.00,SCT,,0.00,WeatherDisplay:10.37,2013-08-02 04:47:00,
2013-08-02 00:52:00,59.7,58.8,30.32,West,262,0.0,0.0,97,0.00,SCT,,0.00,WeatherDisplay:10.37,2013-08-02 04:52:00,
2013-08-02 00:57:00,60.5,59.9,30.32,West,262,0.0,0.0,98,0.00,SCT,,0.00,WeatherDisplay:10.37,2013-08-02 04:57:00,
2013-08-02 01:02:00,60.7,60.1,30.33,West,262,1.2,1.2,98,0.00,FEW,,0.00,WeatherDisplay:10.37,2013-08-02 05:02:00,
2013-08-02 01:07:00,60.2,59.3,30.33,West,262,0.0,0.0,97,0.00,FEW,,0.00,WeatherDisplay:10.37,2013-08-02 05:07:00,
2013-08-02 01:12:00,60.0,59.1,30.33,West,262,0.0,0.0,97,0.00,FEW,,0.00,WeatherDisplay:10.37,2013-08-02 05:12:00,
2013-08-02 01:17:00,59.6,58.5,30.33,West,262,0.0,0.0,96,0.00,FEW,,0.00,WeatherDisplay:10.37,2013-08-02 05:17:00,
2013-08-02 01:22:00,59.3,58.2,30.33,West,262,0.0,0.0,96,0.00,FEW,,0.00,WeatherDisplay:10.37,2013-08-02 05:22:00,
2013-08-02 01:27:00,59.7,58.8,30.33,West,262,1.2,1.2,97,0.00,FEW,,0.00,WeatherDisplay:10.37,2013-08-02 05:27:00,
2013-08-02 01:32:00,59.5,58.6,30.33,West,262,1.2,1.2,97,0.00,FEW,,0.00,WeatherDisplay:10.37,2013-08-02 05:32:00,
2013-08-02 01:37:00,59.6,58.7,30.33,West,262,0.0,0.0,97,0.00,FEW,,0.00,WeatherDisplay:10.37,2013-08-02 05:37:00,
2013-08-02 01:42:00,59.9,59.3,30.33,West,263,1.2,1.2,98,0.00,FEW,,0.00,WeatherDisplay:10.37,2013-08-02 05:42:00,
2013-08-02 01:47:00,60.1,59.5,30.33,West,264,1.2,1.2,98,0.00,FEW,,0.00,WeatherDisplay:10.37,2013-08-02 05:47:00,
2013-08-02 01:52:00,60.4,59.8,30.33,West,275,1.2,1.2,98,0.00,FEW,,0.00,WeatherDisplay:10.37,2013-08-02 05:52:00,
2013-08-02 01:57:00,60.7,60.1,30.32,West,272,1.2,1.2,98,0.00,FEW,,0.00,WeatherDisplay:10.37,2013-08-02 05:57:00,
2013-08-02 02:02:00,60.8,60.2,30.32,West,272,1.2,1.2,98,0.00,FEW,,0.00,WeatherDisplay:10.37,2013-08-02 06:02:00,
2013-08-02 02:07:00,61.1,60.5,30.32,West,272,2.3,2.3,98,0.00,FEW,,0.00,WeatherDisplay:10.37,2013-08-02 06:07:00,
2013-08-02 02:12:00,61.1,60.2,30.32,West,272,1.2,1.2,97,0.00,FEW,,0.00,WeatherDisplay:10.37,2013-08-02 06:12:00,
2013-08-02 02:17:00,61.2,60.1,30.32,West,273,1.2,1.2,96,0.00,FEW,,0.00,WeatherDisplay:10.37,2013-08-02 06:17:00,
2013-08-02 02:22:00,61.1,60.0,30.32,WNW,288,1.2,1.2,96,0.00,FEW,,0.00,WeatherDisplay:10.37,2013-08-02 06:22:00,
2013-08-02 02:27:00,61.0,59.9,30.32,WNW,288,1.2,1.2,96,0.00,FEW,,0.00,WeatherDisplay:10.37,2013-08-02 06:27:00,
2013-08-02 02:32:00,61.0,60.1,30.32,West,281,2.3,2.3,97,0.00,FEW,,0.00,WeatherDisplay:10.37,2013-08-02 06:32:00,
2013-08-02 02:37:00,61.0,60.1,30.32,WNW,287,2.0,2.0,97,0.00,FEW,,0.00,WeatherDisplay:10.37,2013-08-02 06:37:00,
2013-08-02 02:42:00,61.0,59.9,30.32,West,275,2.3,2.3,96,0.00,FEW,,0.00,WeatherDisplay:10.37,2013-08-02 06:42:00,
2013-08-02 02:47:00,61.0,59.9,30.31,West,278,1.2,1.2,96,0.00,FEW,,0.00,WeatherDisplay:10.37,2013-08-02 06:47:00,
2013-08-02 02:52:00,61.2,60.3,30.32,WNW,283,2.3,2.3,97,0.00,FEW,,0.00,WeatherDisplay:10.37,2013-08-02 06:52:00,
2013-08-02 02:57:00,61.2,59.8,30.32,WNW,283,1.2,1.2,95,0.00,FEW,,0.00,WeatherDisplay:10.37,2013-08-02 06:57:00,
2013-08-02 03:02:00,61.1,60.0,30.32,West,272,2.3,2.3,96,0.00,FEW,,0.00,WeatherDisplay:10.37,2013-08-02 07:02:00,
2013-08-02 03:07:00,61.2,60.1,30.32,West,276,2.3,2.3,96,0.00,FEW,,0.00,WeatherDisplay:10.37,2013-08-02 07:07:00,
2013-08-02 03:12:00,61.4,60.2,30.32,WNW,283,1.2,1.2,96,0.00,FEW,,0.00,WeatherDisplay:10.37,2013-08-02 07:12:00,
2013-08-02 03:17:00,61.6,60.4,30.32,West,281,3.5,3.5,96,0.00,FEW,,0.00,WeatherDisplay:10.37,2013-08-02 07:17:00,
2013-08-02 03:22:00,61.7,60.5,30.33,WNW,291,2.3,2.3,96,0.00,FEW,,0.00,WeatherDisplay:10.37,2013-08-02 07:22:00,
2013-08-02 03:27:00,61.7,60.5,30.32,West,281,3.5,3.5,96,0.00,FEW,,0.00,WeatherDisplay:10.37,2013-08-02 07:27:00,
2013-08-02 03:32:00,61.8,60.6,30.32,West,281,3.5,3.5,96,0.00,FEW,,0.00,WeatherDisplay:10.37,2013-08-02 07:32:00,
2013-08-02 03:37:00,61.9,60.5,30.32,WNW,293,3.5,3.5,95,0.00,FEW,,0.00,WeatherDisplay:10.37,2013-08-02 07:37:00,
2013-08-02 03:42:00,61.9,60.5,30.32,West,279,3.5,3.5,95,0.00,FEW,,0.00,WeatherDisplay:10.37,2013-08-02 07:42:00,
2013-08-02 03:47:00,61.7,60.0,30.32,WNW,295,3.5,3.5,94,0.00,FEW,,0.00,WeatherDisplay:10.37,2013-08-02 07:47:00,
2013-08-02 03:53:00,61.5,60.1,30.32,WNW,283,3.5,3.5,95,0.00,FEW,,0.00,WeatherDisplay:10.37,2013-08-02 07:53:00,
2013-08-02 03:58:00,61.5,60.1,30.32,WNW,302,2.3,2.3,95,0.00,FEW,,0.00,WeatherDisplay:10.37,2013-08-02 07:58:00,
2013-08-02 04:03:00,61.5,60.1,30.32,WNW,283,3.5,3.5,95,0.00,CLR,,0.00,WeatherDisplay:10.37,2013-08-02 08:03:00,
2013-08-02 04:08:00,61.5,60.1,30.32,WNW,286,3.5,3.5,95,0.00,CLR,,0.00,WeatherDisplay:10.37,2013-08-02 08:08:00,
2013-08-02 04:13:00,61.5,60.1,30.32,West,272,2.3,2.3,95,0.00,CLR,,0.00,WeatherDisplay:10.37,2013-08-02 08:13:00,
2013-08-02 04:18:00,61.4,60.0,30.33,West,274,2.3,2.3,95,0.00,CLR,,0.00,WeatherDisplay:10.37,2013-08-02 08:18:00,
2013-08-02 04:23:00,61.2,59.8,30.32,West,279,2.3,2.3,95,0.00,CLR,,0.00,WeatherDisplay:10.37,2013-08-02 08:23:00,
2013-08-02 04:28:00,61.2,59.8,30.32,West,281,1.2,1.2,95,0.00,CLR,,0.00,WeatherDisplay:10.37,2013-08-02 08:28:00,
2013-08-02 04:33:00,61.0,59.6,30.32,West,276,2.3,2.3,95,0.00,CLR,,0.00,WeatherDisplay:10.37,2013-08-02 08:33:00,
2013-08-02 04:38:00,61.0,59.6,30.32,West,276,1.2,1.2,95,0.00,CLR,,0.00,WeatherDisplay:10.37,2013-08-02 08:38:00,
2013-08-02 04:43:00,60.9,59.8,30.32,West,281,1.2,0.0,96,0.00,CLR,,0.00,WeatherDisplay:10.37,2013-08-02 08:43:00,
2013-08-02 04:48:00,60.9,59.8,30.32,West,281,0.0,0.0,96,0.00,CLR,,0.00,WeatherDisplay:10.37,2013-08-02 08:48:00,
2013-08-02 04:53:00,60.8,59.4,30.32,West,281,0.0,0.0,95,0.00,CLR,,0.00,WeatherDisplay:10.37,2013-08-02 08:53:00,
2013-08-02 04:58:00,60.6,59.2,30.32,West,281,0.0,0.0,95,0.00,CLR,,0.00,WeatherDisplay:10.37,2013-08-02 08:58:00,
2013-08-02 05:03:00,60.3,59.2,30.32,West,281,0.0,0.0,96,0.00,CLR,,0.00,WeatherDisplay:10.37,2013-08-02 09:03:00,
2013-08-02 05:08:00,60.1,59.0,30.33,West,281,0.0,0.0,96,0.00,CLR,,0.00,WeatherDisplay:10.37,2013-08-02 09:08:00,
2013-08-02 05:13:00,59.8,58.7,30.33,West,281,0.0,0.0,96,0.00,CLR,,0.00,WeatherDisplay:10.37,2013-08-02 09:13:00,
2013-08-02 05:18:00,59.7,58.6,30.33,West,281,1.2,1.2,96,0.00,CLR,,0.00,WeatherDisplay:10.37,2013-08-02 09:18:00,
2013-08-02 05:23:00,59.7,58.8,30.33,West,281,0.0,0.0,97,0.00,CLR,,0.00,WeatherDisplay:10.37,2013-08-02 09:23:00,
2013-08-02 05:28:00,59.6,58.7,30.33,West,281,0.0,0.0,97,0.00,CLR,,0.00,WeatherDisplay:10.37,2013-08-02 09:28:00,
2013-08-02 05:33:00,59.5,58.6,30.33,West,281,0.0,0.0,97,0.00,CLR,,0.00,WeatherDisplay:10.37,2013-08-02 09:33:00,
2013-08-02 05:38:00,59.5,58.6,30.33,West,281,0.0,0.0,97,0.00,CLR,,0.00,WeatherDisplay:10.37,2013-08-02 09:38:00,
2013-08-02 05:43:00,59.5,58.6,30.33,West,281,0.0,0.0,97,0.00,CLR,,0.00,WeatherDisplay:10.37,2013-08-02 09:43:00,
2013-08-02 05:48:00,59.4,58.5,30.34,West,281,0.0,0.0,97,0.00,CLR,,0.00,WeatherDisplay:10.37,2013-08-02 09:48:00,
2013-08-02 05:53:00,59.3,58.4,30.34,West,281,1.2,1.2,97,0.00,CLR,,0.00,WeatherDisplay:10.37,2013-08-02 09:53:00,
2013-08-02 05:58:00,59.0,58.2,30.34,West,281,1.2,1.2,97,0.00,CLR,,0.00,WeatherDisplay:10.37,2013-08-02 09:58:00,
2013-08-02 06:03:00,58.8,58.0,30.34,West,281,0.0,0.0,97,0.00,FEW,,0.00,WeatherDisplay:10.37,2013-08-02 10:03:00,
2013-08-02 06:08:00,58.6,57.8,30.34,West,281,0.0,0.0,97,0.00,FEW,,0.00,WeatherDisplay:10.37,2013-08-02 10:08:00,
2013-08-02 06:13:00,58.6,57.8,30.34,West,281,0.0,0.0,97,0.00,FEW,,0.00,WeatherDisplay:10.37,2013-08-02 10:13:00,
2013-08-02 06:18:00,58.7,58.1,30.34,West,281,0.0,0.0,98,0.00,FEW,,0.00,WeatherDisplay:10.37,2013-08-02 10:18:00,
2013-08-02 06:23:00,58.6,58.0,30.34,West,281,0.0,0.0,98,0.00,FEW,,0.00,WeatherDisplay:10.37,2013-08-02 10:23:00,
2013-08-02 06:28:00,58.5,57.9,30.34,West,281,1.2,1.2,98,0.00,FEW,,0.00,WeatherDisplay:10.37,2013-08-02 10:28:00,
2013-08-02 06:33:00,58.6,58.0,30.35,West,281,0.0,0.0,98,0.00,FEW,,0.00,WeatherDisplay:10.37,2013-08-02 10:33:00,
2013-08-02 06:38:00,58.7,58.1,30.34,West,281,0.0,0.0,98,0.00,FEW,,0.00,WeatherDisplay:10.37,2013-08-02 10:38:00,
2013-08-02 06:43:00,58.8,58.2,30.34,West,281,1.2,1.2,98,0.00,FEW,,0.00,WeatherDisplay:10.37,2013-08-02 10:43:00,
2013-08-02 06:48:00,58.9,58.3,30.34,West,281,0.0,0.0,98,0.00,FEW,,0.00,WeatherDisplay:10.37,2013-08-02 10:48:00,
2013-08-02 06:53:00,59.2,58.6,30.34,West,281,0.0,0.0,98,0.00,FEW,,0.00,WeatherDisplay:10.37,2013-08-02 10:53:00,
2013-08-02 06:58:00,60.3,59.7,30.34,West,281,0.0,0.0,98,0.00,FEW,,0.00,WeatherDisplay:10.37,2013-08-02 10:58:00,
2013-08-02 07:03:00,60.9,60.3,30.35,West,279,2.3,2.3,98,0.00,FEW,,0.00,WeatherDisplay:10.37,2013-08-02 11:03:00,
2013-08-02 07:08:00,60.7,59.8,30.35,WSW,257,2.3,2.3,97,0.00,FEW,,0.00,WeatherDisplay:10.37,2013-08-02 11:08:00,
2013-08-02 07:13:00,61.0,59.9,30.35,WSW,253,3.5,3.5,96,0.00,FEW,,0.00,WeatherDisplay:10.37,2013-08-02 11:13:00,
2013-08-02 07:18:00,61.5,60.3,30.35,WSW,253,2.3,2.3,96,0.00,FEW,,0.00,WeatherDisplay:10.37,2013-08-02 11:18:00,
2013-08-02 07:23:00,62.0,60.6,30.35,WSW,242,1.2,1.2,95,0.00,FEW,,0.00,WeatherDisplay:10.37,2013-08-02 11:23:00,
2013-08-02 07:28:00,62.8,61.0,30.35,WSW,244,1.2,1.2,94,0.00,FEW,,0.00,WeatherDisplay:10.37,2013-08-02 11:28:00,
2013-08-02 07:33:00,63.2,60.8,30.35,WSW,248,2.3,2.3,92,0.00,FEW,,0.00,WeatherDisplay:10.37,2013-08-02 11:33:00,
2013-08-02 07:38:00,63.6,61.2,30.35,WSW,250,2.3,2.3,92,0.00,FEW,,0.00,WeatherDisplay:10.37,2013-08-02 11:38:00,
2013-08-02 07:43:00,63.8,61.4,30.35,WSW,253,3.5,3.5,92,0.00,FEW,,0.00,WeatherDisplay:10.37,2013-08-02 11:43:00,
2013-08-02 07:48:00,64.0,61.3,30.36,West,263,2.3,2.3,91,0.00,FEW,,0.00,WeatherDisplay:10.37,2013-08-02 11:48:00,
2013-08-02 07:53:00,64.3,61.6,30.36,West,269,2.3,2.3,91,0.00,FEW,,0.00,WeatherDisplay:10.37,2013-08-02 11:53:00,
2013-08-02 07:58:00,64.7,62.0,30.36,WSW,241,1.2,1.2,91,0.00,FEW,,0.00,WeatherDisplay:10.37,2013-08-02 11:58:00,
2013-08-02 08:03:00,65.1,62.4,30.36,West,270,1.2,1.2,91,0.00,FEW,,0.00,WeatherDisplay:10.37,2013-08-02 12:03:00,
2013-08-02 08:08:00,65.6,62.3,30.36,WNW,285,3.5,3.5,89,0.00,FEW,,0.00,WeatherDisplay:10.37,2013-08-02 12:08:00,
2013-08-02 08:13:00,66.0,62.3,30.36,WNW,298,5.8,5.8,88,0.00,FEW,,0.00,WeatherDisplay:10.37,2013-08-02 12:13:00,
2013-08-02 08:18:00,66.2,62.5,30.37,WSW,249,4.6,4.6,88,0.00,FEW,,0.00,WeatherDisplay:10.37,2013-08-02 12:18:00,
2013-08-02 08:23:00,66.4,62.7,30.37,WSW,247,5.8,5.8,88,0.00,FEW,,0.00,WeatherDisplay:10.37,2013-08-02 12:23:00,
2013-08-02 08:28:00,66.8,62.8,30.37,West,271,4.6,4.6,87,0.00,FEW,,0.00,WeatherDisplay:10.37,2013-08-02 12:28:00,
2013-08-02 08:33:00,67.1,62.8,30.37,West,276,4.6,4.6,86,0.00,FEW,,0.00,WeatherDisplay:10.37,2013-08-02 12:33:00,
2013-08-02 08:38:00,67.3,63.3,30.37,WSW,243,4.6,4.6,87,0.00,FEW,,0.00,WeatherDisplay:10.37,2013-08-02 12:38:00,
2013-08-02 08:43:00,67.8,63.5,30.37,West,271,8.1,8.1,86,0.00,FEW,,0.00,WeatherDisplay:10.37,2013-08-02 12:43:00,
2013-08-02 08:48:00,68.0,63.3,30.36,WNW,288,4.6,4.6,85,0.00,FEW,,0.00,WeatherDisplay:10.37,2013-08-02 12:48:00,
2013-08-02 08:53:00,68.4,63.4,30.36,West,263,3.5,3.5,84,0.00,FEW,,0.00,WeatherDisplay:10.37,2013-08-02 12:53:00,
2013-08-02 08:58:00,69.1,64.1,30.37,SW,224,4.6,4.6,84,0.00,FEW,,0.00,WeatherDisplay:10.37,2013-08-02 12:58:00,
2013-08-02 09:03:00,69.3,62.9,30.37,WSW,255,4.6,4.6,80,0.00,FEW,,0.00,WeatherDisplay:10.37,2013-08-02 13:03:00,
2013-08-02 09:08:00,69.4,62.6,30.37,West,261,6.9,6.9,79,0.00,FEW,,0.00,WeatherDisplay:10.37,2013-08-02 13:08:00,
2013-08-02 09:13:00,69.4,63.0,30.37,WNW,293,6.9,6.9,80,0.00,FEW,,0.00,WeatherDisplay:10.37,2013-08-02 13:13:00,
2013-08-02 09:18:00,69.9,63.4,30.37,WSW,250,3.5,3.5,80,0.00,FEW,,0.00,WeatherDisplay:10.37,2013-08-02 13:18:00,
2013-08-02 09:23:00,70.2,64.1,30.37,West,273,4.6,4.6,81,0.00,FEW,,0.00,WeatherDisplay:10.37,2013-08-02 13:23:00,
2013-08-02 09:28:00,70.5,64.4,30.37,West,276,4.6,4.6,81,0.00,FEW,,0.00,WeatherDisplay:10.37,2013-08-02 13:28:00,
2013-08-02 09:33:00,70.7,64.2,30.37,WSW,258,4.6,4.6,80,0.00,FEW,,0.00,WeatherDisplay:10.37,2013-08-02 13:33:00,
2013-08-02 09:38:00,71.2,65.1,30.36,WSW,258,3.5,3.5,81,0.00,FEW,,0.00,WeatherDisplay:10.37,2013-08-02 13:38:00,
2013-08-02 09:43:00,71.2,63.2,30.36,West,264,4.6,4.6,76,0.00,FEW,,0.00,WeatherDisplay:10.37,2013-08-02 13:43:00,
2013-08-02 09:48:00,71.4,63.8,30.36,West,266,5.0,5.0,77,0.00,FEW,,0.00,WeatherDisplay:10.37,2013-08-02 13:48:00,
2013-08-02 09:54:00,71.7,64.1,30.36,WNW,282,4.6,4.6,77,0.00,FEW,,0.00,WeatherDisplay:10.37,2013-08-02 13:54:00,
2013-08-02 09:59:00,72.5,64.5,30.36,West,264,2.3,2.3,76,0.00,FEW,,0.00,WeatherDisplay:10.37,2013-08-02 13:59:00,
2013-08-02 10:04:00,72.7,62.8,30.36,West,266,5.8,5.8,71,0.00,FEW,,0.00,WeatherDisplay:10.37,2013-08-02 14:04:00,
2013-08-02 10:09:00,72.8,63.2,30.36,WSW,248,3.5,3.5,72,0.00,FEW,,0.00,WeatherDisplay:10.37,2013-08-02 14:09:00,
2013-08-02 10:14:00,73.0,63.8,30.36,South,181,3.5,3.5,73,0.00,FEW,,0.00,WeatherDisplay:10.37,2013-08-02 14:14:00,
2013-08-02 10:19:00,73.0,63.4,30.35,WSW,247,3.5,3.5,72,0.00,FEW,,0.00,WeatherDisplay:10.37,2013-08-02 14:19:00,
2013-08-02 10:24:00,73.5,64.7,30.35,SW,235,4.6,4.6,74,0.00,FEW,,0.00,WeatherDisplay:10.37,2013-08-02 14:24:00,
2013-08-02 10:29:00,73.4,63.4,30.35,West,266,4.6,4.6,71,0.00,FEW,,0.00,WeatherDisplay:10.37,2013-08-02 14:29:00,
2013-08-02 10:34:00,73.3,63.3,30.35,West,281,4.0,4.0,71,0.00,FEW,,0.00,WeatherDisplay:10.37,2013-08-02 14:34:00,
2013-08-02 10:39:00,73.3,63.3,30.35,WSW,257,3.5,3.5,71,0.00,FEW,,0.00,WeatherDisplay:10.37,2013-08-02 14:39:00,
2013-08-02 10:44:00,73.6,63.6,30.35,SSE,168,2.3,2.3,71,0.00,FEW,,0.00,WeatherDisplay:10.37,2013-08-02 14:44:00,
2013-08-02 10:49:00,73.7,62.9,30.35,South,177,3.5,3.5,69,0.00,FEW,,0.00,WeatherDisplay:10.37,2013-08-02 14:49:00,
2013-08-02 10:54:00,73.6,62.8,30.35,SSW,200,2.3,2.3,69,0.00,FEW,,0.00,WeatherDisplay:10.37,2013-08-02 14:54:00,
2013-08-02 10:59:00,74.2,63.0,30.34,WSW,258,4.6,4.6,68,0.00,FEW,,0.00,WeatherDisplay:10.37,2013-08-02 14:59:00,
2013-08-02 11:04:00,74.4,62.7,30.34,West,262,5.8,5.8,67,0.00,SCT,,0.00,WeatherDisplay:10.37,2013-08-02 15:04:00,
2013-08-02 11:09:00,75.0,62.4,30.34,WNW,284,10.4,10.4,65,0.00,SCT,,0.00,WeatherDisplay:10.37,2013-08-02 15:09:00,
2013-08-02 11:14:00,74.6,62.9,30.34,West,262,3.5,3.5,67,0.00,SCT,,0.00,WeatherDisplay:10.37,2013-08-02 15:14:00,
2013-08-02 11:19:00,75.2,63.1,30.34,West,270,5.8,5.8,66,0.00,SCT,,0.00,WeatherDisplay:10.37,2013-08-02 15:19:00,
2013-08-02 11:24:00,74.9,62.8,30.33,WSW,243,6.9,6.9,66,0.00,SCT,,0.00,WeatherDisplay:10.37,2013-08-02 15:24:00,
2013-08-02 11:29:00,75.0,62.0,30.33,WNW,292,7.0,7.0,64,0.00,SCT,,0.00,WeatherDisplay:10.37,2013-08-02 15:29:00,
2013-08-02 11:34:00,74.0,61.9,30.34,WSW,253,4.0,4.0,66,0.00,SCT,,0.00,WeatherDisplay:10.37,2013-08-02 15:34:00,
2013-08-02 11:39:00,73.6,61.5,30.34,West,272,3.5,3.5,66,0.00,SCT,,0.00,WeatherDisplay:10.37,2013-08-02 15:39:00,
2013-08-02 11:44:00,72.9,61.3,30.33,West,263,5.8,5.8,67,0.00,SCT,,0.00,WeatherDisplay:10.37,2013-08-02 15:44:00,
2013-08-02 11:49:00,72.5,61.3,30.33,WSW,257,3.5,3.5,68,0.00,SCT,,0.00,WeatherDisplay:10.37,2013-08-02 15:49:00,
2013-08-02 11:54:00,71.9,61.2,30.33,WSW,252,5.0,5.0,69,0.00,SCT,,0.00,WeatherDisplay:10.37,2013-08-02 15:54:00,
2013-08-02 11:59:00,71.4,61.1,30.33,SW,236,3.5,3.5,70,0.00,SCT,,0.00,WeatherDisplay:10.37,2013-08-02 15:59:00,
2013-08-02 12:04:00,71.4,61.9,30.33,WSW,256,3.5,3.5,72,0.00,OVC,,0.00,WeatherDisplay:10.37,2013-08-02 16:04:00,
2013-08-02 12:09:00,71.2,61.7,30.33,WSW,249,4.0,4.0,72,0.00,OVC,,0.00,WeatherDisplay:10.37,2013-08-02 16:09:00,
2013-08-02 12:14:00,71.2,62.1,30.33,West,270,2.3,2.3,73,0.00,OVC,,0.00,WeatherDisplay:10.37,2013-08-02 16:14:00,
2013-08-02 12:19:00,71.2,62.1,30.33,West,259,1.2,1.2,73,0.00,OVC,,0.00,WeatherDisplay:10.37,2013-08-02 16:19:00,
2013-08-02 12:24:00,71.2,62.9,30.33,West,259,1.0,1.0,75,0.00,OVC,,0.00,WeatherDisplay:10.37,2013-08-02 16:24:00,
2013-08-02 12:29:00,70.9,61.8,30.33,West,261,1.2,1.2,73,0.00,OVC,,0.00,WeatherDisplay:10.37,2013-08-02 16:29:00,
2013-08-02 12:34:00,70.6,62.7,30.34,WNW,286,1.2,1.2,76,0.00,OVC,,0.00,WeatherDisplay:10.37,2013-08-02 16:34:00,
2013-08-02 12:39:00,70.1,61.8,30.35,WNW,286,1.2,1.2,75,0.00,OVC,,0.00,WeatherDisplay:10.37,2013-08-02 16:39:00,
2013-08-02 12:44:00,69.8,62.6,30.35,NW,309,1.2,1.2,78,0.00,OVC,,0.00,WeatherDisplay:10.37,2013-08-02 16:44:00,
2013-08-02 12:49:00,69.3,63.2,30.35,NW,309,0.0,0.0,81,0.01,RA,,0.01,WeatherDisplay:10.37,2013-08-02 16:49:00,
2013-08-02 12:54:00,68.7,63.3,30.35,NW,309,0.0,0.0,83,0.01,RA,,0.01,WeatherDisplay:10.37,2013-08-02 16:54:00,
2013-08-02 12:59:00,68.0,63.3,30.36,NW,309,1.2,1.2,85,0.03,RA,,0.03,WeatherDisplay:10.37,2013-08-02 16:59:00,
2013-08-02 13:04:00,67.3,64.3,30.37,WNW,295,2.3,2.3,90,0.05,RA,,0.06,WeatherDisplay:10.37,2013-08-02 17:04:00,
2013-08-02 13:09:00,66.4,63.4,30.37,WNW,290,7.0,7.0,90,0.10,RA,,0.10,WeatherDisplay:10.37,2013-08-02 17:09:00,
2013-08-02 13:14:00,65.8,63.1,30.36,SW,220,3.0,3.0,91,0.14,RA,,0.15,WeatherDisplay:10.37,2013-08-02 17:14:00,
2013-08-02 13:19:00,64.5,60.5,30.36,NW,319,3.5,3.5,87,0.24,RA,,0.26,WeatherDisplay:10.37,2013-08-02 17:19:00,
2013-08-02 13:24:00,63.1,59.8,30.36,NNW,337,1.2,0.0,89,0.33,RA,,0.33,WeatherDisplay:10.37,2013-08-02 17:24:00,
2013-08-02 13:29:00,62.4,59.1,30.36,NW,307,1.2,1.2,89,0.37,RA,,0.37,WeatherDisplay:10.37,2013-08-02 17:29:00,
2013-08-02 13:34:00,62.5,59.8,30.35,East,95,2.3,2.3,91,0.37,RA,,0.37,WeatherDisplay:10.37,2013-08-02 17:34:00,
2013-08-02 13:39:00,63.4,60.7,30.35,ESE,118,3.5,3.5,91,0.37,BKN,,0.37,WeatherDisplay:10.37,2013-08-02 17:39:00,
2013-08-02 13:44:00,64.0,60.7,30.35,East,86,1.2,1.2,89,0.37,BKN,,0.37,WeatherDisplay:10.37,2013-08-02 17:44:00,
2013-08-02 13:49:00,64.7,61.4,30.35,East,86,0.0,0.0,89,0.36,BKN,,0.37,WeatherDisplay:10.37,2013-08-02 17:49:00,
2013-08-02 13:54:00,65.2,61.9,30.35,East,92,0.0,0.0,89,0.36,BKN,,0.37,WeatherDisplay:10.37,2013-08-02 17:54:00,
2013-08-02 13:59:00,65.4,62.4,30.35,WNW,295,2.3,2.3,90,0.34,BKN,,0.37,WeatherDisplay:10.37,2013-08-02 17:59:00,
2013-08-02 14:04:00,65.6,62.9,30.35,WNW,295,1.2,0.0,91,0.32,OVC,,0.37,WeatherDisplay:10.37,2013-08-02 18:04:00,
2013-08-02 14:09:00,65.8,62.8,30.36,NW,309,2.3,2.3,90,0.27,OVC,,0.37,WeatherDisplay:10.37,2013-08-02 18:09:00,
2013-08-02 14:14:00,65.7,62.7,30.36,NW,309,1.2,0.0,90,0.23,OVC,,0.37,WeatherDisplay:10.37,2013-08-02 18:14:00,
2013-08-02 14:19:00,65.6,62.6,30.36,West,272,3.5,3.5,90,0.13,OVC,,0.37,WeatherDisplay:10.37,2013-08-02 18:19:00,
2013-08-02 14:24:00,65.4,62.4,30.35,West,264,2.0,2.0,90,0.10,RA,,0.43,WeatherDisplay:10.37,2013-08-02 18:24:00,
2013-08-02 14:29:00,65.9,63.2,30.35,SSE,167,2.3,2.3,91,0.07,RA,,0.44,WeatherDisplay:10.37,2013-08-02 18:29:00,
2013-08-02 14:34:00,66.6,62.3,30.35,South,169,0.0,0.0,86,0.07,RA,,0.44,WeatherDisplay:10.37,2013-08-02 18:34:00,
2013-08-02 14:35:00,66.7,62.0,30.34,South,169,1.2,1.2,85,0.07,OVC,,0.44,WeatherDisplay:10.37,2013-08-02 18:35:00,
2013-08-02 14:40:00,67.6,62.9,30.34,SSE,168,1.2,1.2,85,0.07,OVC,,0.44,WeatherDisplay:10.37,2013-08-02 18:40:00,
2013-08-02 14:45:00,68.5,62.4,30.34,West,272,2.3,2.3,81,0.07,OVC,,0.44,WeatherDisplay:10.37,2013-08-02 18:45:00,
2013-08-02 14:50:00,69.1,63.4,30.34,West,272,3.5,3.5,82,0.07,OVC,,0.44,WeatherDisplay:10.37,2013-08-02 18:50:00,
2013-08-02 14:55:00,69.1,63.7,30.34,WSW,242,3.5,3.5,83,0.07,OVC,,0.44,WeatherDisplay:10.37,2013-08-02 18:55:00,
2013-08-02 15:00:00,69.1,63.7,30.34,WSW,249,4.0,4.0,83,0.07,OVC,,0.44,WeatherDisplay:10.37,2013-08-02 19:00:00,
2013-08-02 15:05:00,70.0,64.2,30.33,West,268,3.5,3.5,82,0.07,BKN,,0.44,WeatherDisplay:10.37,2013-08-02 19:05:00,
2013-08-02 15:10:00,70.9,64.4,30.33,WSW,257,2.3,2.3,80,0.07,BKN,,0.44,WeatherDisplay:10.37,2013-08-02 19:10:00,
2013-08-02 15:15:00,71.5,66.1,30.33,West,280,4.6,4.6,83,0.07,BKN,,0.44,WeatherDisplay:10.37,2013-08-02 19:15:00,
2013-08-02 15:20:00,72.0,64.8,30.33,SE,133,3.5,3.5,78,0.07,BKN,,0.44,WeatherDisplay:10.37,2013-08-02 19:20:00,
2013-08-02 15:25:00,72.2,65.0,30.33,WSW,244,4.6,4.6,78,0.00,BKN,,0.44,WeatherDisplay:10.37,2013-08-02 19:25:00,
2013-08-02 15:30:00,71.7,64.8,30.33,West,269,4.0,4.0,79,0.00,BKN,,0.44,WeatherDisplay:10.37,2013-08-02 19:30:00,
2013-08-02 15:35:00,71.8,66.0,30.33,SSE,157,2.0,2.0,82,0.00,BKN,,0.44,WeatherDisplay:10.37,2013-08-02 19:35:00,
2013-08-02 15:40:00,71.7,64.5,30.33,WSW,255,3.5,3.5,78,0.00,BKN,,0.44,WeatherDisplay:10.37,2013-08-02 19:40:00,
2013-08-02 15:45:00,71.7,64.8,30.33,West,260,3.5,3.5,79,0.00,BKN,,0.44,WeatherDisplay:10.37,2013-08-02 19:45:00,
2013-08-02 15:50:00,72.0,62.9,30.33,West,262,3.5,3.5,73,0.00,BKN,,0.44,WeatherDisplay:10.37,2013-08-02 19:50:00,
2013-08-02 15:55:00,72.3,63.5,30.32,WNW,293,1.2,1.2,74,0.00,BKN,,0.44,WeatherDisplay:10.37,2013-08-02 19:55:00,
2013-08-02 16:00:00,73.0,65.0,30.32,West,276,3.0,3.0,76,0.00,BKN,,0.44,WeatherDisplay:10.37,2013-08-02 20:00:00,
2013-08-02 16:05:00,73.2,63.6,30.32,SE,132,2.3,2.3,72,0.00,-RA,,0.44,WeatherDisplay:10.37,2013-08-02 20:05:00,
2013-08-02 16:10:00,72.8,63.2,30.32,NW,312,3.0,3.0,72,0.00,-RA,,0.44,WeatherDisplay:10.37,2013-08-02 20:10:00,
2013-08-02 16:15:00,72.8,65.2,30.31,WNW,287,1.2,1.2,77,0.00,-RA,,0.44,WeatherDisplay:10.37,2013-08-02 20:15:00,
2013-08-02 16:20:00,73.3,63.3,30.31,WNW,285,3.5,3.5,71,0.00,-RA,,0.44,WeatherDisplay:10.37,2013-08-02 20:20:00,
2013-08-02 16:25:00,73.5,63.5,30.31,West,268,2.3,2.3,71,0.00,-RA,,0.44,WeatherDisplay:10.37,2013-08-02 20:25:00,
2013-08-02 16:30:00,74.1,65.3,30.31,West,279,4.0,4.0,74,0.00,-RA,,0.44,WeatherDisplay:10.37,2013-08-02 20:30:00,
2013-08-02 16:35:00,73.6,64.0,30.31,NNW,333,1.2,1.2,72,0.00,-RA,,0.44,WeatherDisplay:10.37,2013-08-02 20:35:00,
2013-08-02 16:40:00,73.3,64.9,30.31,WNW,294,2.3,2.3,75,0.00,-RA,,0.44,WeatherDisplay:10.37,2013-08-02 20:40:00,
2013-08-02 16:45:00,73.0,65.0,30.31,WNW,295,1.2,0.0,76,0.00,-RA,,0.44,WeatherDisplay:10.37,2013-08-02 20:45:00,
2013-08-02 16:50:00,72.9,64.5,30.31,WNW,295,0.0,0.1,75,0.00,-RA,,0.44,WeatherDisplay:10.37,2013-08-02 20:50:00,
2013-08-02 16:55:00,72.6,64.6,30.31,WNW,303,4.0,4.0,76,0.00,-RA,,0.44,WeatherDisplay:10.37,2013-08-02 20:55:00,
2013-08-02 17:00:00,72.2,62.7,30.31,WNW,285,6.9,6.9,72,0.00,-RA,,0.44,WeatherDisplay:10.37,2013-08-02 21:00:00,
2013-08-02 17:05:00,72.4,63.3,30.31,WNW,298,4.6,4.6,73,0.00,-RA,,0.44,WeatherDisplay:10.37,2013-08-02 21:05:00,
2013-08-02 17:10:00,72.5,63.0,30.31,WNW,293,3.5,3.5,72,0.00,-RA,,0.44,WeatherDisplay:10.37,2013-08-02 21:10:00,
2013-08-02 17:15:00,72.5,63.4,30.31,NW,312,2.0,2.0,73,0.00,-RA,,0.44,WeatherDisplay:10.37,2013-08-02 21:15:00,
2013-08-02 17:20:00,73.5,64.3,30.31,NW,307,3.5,3.5,73,0.00,-RA,,0.44,WeatherDisplay:10.37,2013-08-02 21:20:00,
2013-08-02 17:25:00,74.7,66.6,30.31,North,11,2.3,2.3,76,0.00,-RA,,0.44,WeatherDisplay:10.37,2013-08-02 21:25:00,
2013-08-02 17:30:00,74.3,64.7,30.32,NW,319,1.2,1.2,72,0.00,-RA,,0.44,WeatherDisplay:10.37,2013-08-02 21:30:00,
2013-08-02 17:35:00,73.9,65.5,30.32,NW,317,3.5,3.5,75,0.00,-RA,,0.44,WeatherDisplay:10.37,2013-08-02 21:35:00,
2013-08-02 17:40:00,73.2,64.4,30.31,NW,305,2.3,2.3,74,0.00,-RA,,0.44,WeatherDisplay:10.37,2013-08-02 21:40:00,
2013-08-02 17:45:00,72.7,64.7,30.32,NW,305,1.2,1.2,76,0.00,-RA,,0.44,WeatherDisplay:10.37,2013-08-02 21:45:00,
2013-08-02 17:51:00,71.9,63.2,30.32,NW,312,3.5,3.5,74,0.00,-RA,,0.44,WeatherDisplay:10.37,2013-08-02 21:51:00,
2013-08-02 17:56:00,71.4,63.4,30.32,WNW,283,1.2,1.2,76,0.00,-RA,,0.44,WeatherDisplay:10.37,2013-08-02 21:56:00,
2013-08-02 18:01:00,71.3,62.6,30.32,WNW,298,3.5,3.5,74,0.00,-RA,,0.44,WeatherDisplay:10.37,2013-08-02 22:01:00,
2013-08-02 18:05:00,70.7,62.8,30.32,North,350,1.2,1.2,76,0.00,BKN,,0.44,WeatherDisplay:10.37,2013-08-02 22:05:00,
2013-08-02 18:11:00,70.2,62.6,30.32,WNW,290,2.3,2.3,77,0.00,BKN,,0.44,WeatherDisplay:10.37,2013-08-02 22:11:00,
2013-08-02 18:16:00,70.2,63.4,30.32,WNW,293,1.2,1.2,79,0.00,BKN,,0.44,WeatherDisplay:10.37,2013-08-02 22:16:00,
2013-08-02 18:21:00,71.3,63.0,30.32,NW,307,2.3,2.3,75,0.00,BKN,,0.44,WeatherDisplay:10.37,2013-08-02 22:21:00,
2013-08-02 18:25:00,72.5,63.0,30.32,NW,314,3.5,3.5,72,0.00,BKN,,0.44,WeatherDisplay:10.37,2013-08-02 22:25:00,
2013-08-02 18:30:00,72.7,63.1,30.32,NW,304,2.3,2.3,72,0.00,BKN,,0.44,WeatherDisplay:10.37,2013-08-02 22:30:00,
2013-08-02 18:36:00,71.9,63.2,30.32,NW,312,3.5,3.5,74,0.00,BKN,,0.44,WeatherDisplay:10.37,2013-08-02 22:36:00,
2013-08-02 18:41:00,71.3,63.0,30.32,WNW,295,3.5,3.5,75,0.00,BKN,,0.44,WeatherDisplay:10.37,2013-08-02 22:41:00,
2013-08-02 18:46:00,71.9,63.2,30.32,WNW,294,1.2,1.2,74,0.00,BKN,,0.44,WeatherDisplay:10.37,2013-08-02 22:46:00,
2013-08-02 18:50:00,72.9,62.9,30.32,WNW,294,0.0,0.0,71,0.00,BKN,,0.44,WeatherDisplay:10.37,2013-08-02 22:50:00,
2013-08-02 18:56:00,73.3,62.5,30.32,West,274,2.3,0.0,69,0.00,BKN,,0.44,WeatherDisplay:10.37,2013-08-02 22:56:00,
2013-08-02 19:00:00,73.5,61.9,30.32,West,274,1.2,1.2,67,0.00,BKN,,0.44,WeatherDisplay:10.37,2013-08-02 23:00:00,
2013-08-02 19:06:00,73.7,63.3,30.32,West,274,1.2,1.2,70,0.00,BKN,,0.44,WeatherDisplay:10.37,2013-08-02 23:06:00,
2013-08-02 19:11:00,74.3,62.6,30.32,West,274,0.0,0.0,67,0.00,BKN,,0.44,WeatherDisplay:10.37,2013-08-02 23:11:00,
2013-08-02 19:16:00,75.0,64.5,30.32,West,274,0.0,0.0,70,0.00,BKN,,0.44,WeatherDisplay:10.37,2013-08-02 23:16:00,
2013-08-02 19:21:00,75.1,62.1,30.32,West,274,0.0,0.0,64,0.00,BKN,,0.44,WeatherDisplay:10.37,2013-08-02 23:21:00,
2013-08-02 19:26:00,74.2,63.0,30.32,West,274,1.2,0.0,68,0.00,BKN,,0.44,WeatherDisplay:10.37,2013-08-02 23:26:00,
2013-08-02 19:31:00,73.1,62.3,30.32,West,274,0.0,0.0,69,0.00,BKN,,0.44,WeatherDisplay:10.37,2013-08-02 23:31:00,
2013-08-02 19:36:00,73.0,63.4,30.32,West,274,0.0,0.0,72,0.00,BKN,,0.44,WeatherDisplay:10.37,2013-08-02 23:36:00,
2013-08-02 19:41:00,73.1,63.5,30.32,West,274,0.0,0.0,72,0.00,BKN,,0.44,WeatherDisplay:10.37,2013-08-02 23:41:00,
2013-08-02 19:46:00,72.5,62.6,30.32,West,274,1.2,1.2,71,0.00,BKN,,0.44,WeatherDisplay:10.37,2013-08-02 23:46:00,
2013-08-02 19:51:00,71.6,62.1,30.32,West,274,1.2,1.2,72,0.00,BKN,,0.44,WeatherDisplay:10.37,2013-08-02 23:51:00,
2013-08-02 19:56:00,70.5,62.2,30.32,West,274,0.0,0.0,75,0.00,BKN,,0.44,WeatherDisplay:10.37,2013-08-02 23:56:00,
2013-08-02 20:01:00,69.5,62.3,30.32,West,274,0.0,0.0,78,0.00,BKN,,0.44,WeatherDisplay:10.37,2013-08-03 00:01:00,
2013-08-02 20:06:00,68.3,62.2,30.32,West,274,0.0,0.0,81,0.00,BKN,,0.44,WeatherDisplay:10.37,2013-08-03 00:06:00,
2013-08-02 20:11:00,67.4,61.7,30.33,West,274,0.0,0.0,82,0.00,BKN,,0.44,WeatherDisplay:10.37,2013-08-03 00:11:00,
2013-08-02 20:16:00,66.6,61.6,30.32,West,274,0.0,0.0,84,0.00,BKN,,0.44,WeatherDisplay:10.37,2013-08-03 00:16:00,
2013-08-02 20:21:00,65.8,61.5,30.32,West,274,0.0,0.0,86,0.00,BKN,,0.44,WeatherDisplay:10.37,2013-08-03 00:21:00,
2013-08-02 20:26:00,65.1,61.1,30.32,West,274,0.0,0.0,87,0.00,BKN,,0.44,WeatherDisplay:10.37,2013-08-03 00:26:00,
2013-08-02 20:31:00,64.5,61.2,30.32,West,274,0.0,0.0,89,0.00,BKN,,0.44,WeatherDisplay:10.37,2013-08-03 00:31:00,
2013-08-02 20:36:00,64.0,61.0,30.32,West,274,0.0,0.0,90,0.00,BKN,,0.44,WeatherDisplay:10.37,2013-08-03 00:36:00,
2013-08-02 20:41:00,63.6,60.6,30.32,West,274,0.0,0.0,90,0.00,BKN,,0.44,WeatherDisplay:10.37,2013-08-03 00:41:00,
2013-08-02 20:46:00,63.3,61.2,30.32,West,274,0.0,0.0,93,0.00,BKN,,0.44,WeatherDisplay:10.37,2013-08-03 00:46:00,
2013-08-02 20:51:00,62.9,60.8,30.32,West,274,0.0,0.0,93,0.00,BKN,,0.44,WeatherDisplay:10.37,2013-08-03 00:51:00,
2013-08-02 20:56:00,62.6,60.5,30.32,West,274,1.0,0.0,93,0.00,BKN,,0.44,WeatherDisplay:10.37,2013-08-03 00:56:00,
2013-08-02 21:01:00,62.4,60.7,30.32,West,274,0.0,0.0,94,0.00,BKN,,0.44,WeatherDisplay:10.37,2013-08-03 01:01:00,
2013-08-02 21:06:00,62.3,60.6,30.32,West,274,1.2,1.2,94,0.00,BKN,,0.44,WeatherDisplay:10.37,2013-08-03 01:06:00,
2013-08-02 21:11:00,62.1,60.4,30.32,West,274,0.0,0.0,94,0.00,BKN,,0.44,WeatherDisplay:10.37,2013-08-03 01:11:00,
2013-08-02 21:16:00,62.0,60.3,30.32,West,274,0.0,0.0,94,0.00,BKN,,0.44,WeatherDisplay:10.37,2013-08-03 01:16:00,
2013-08-02 21:21:00,61.9,60.2,30.32,West,274,0.0,0.0,94,0.00,BKN,,0.44,WeatherDisplay:10.37,2013-08-03 01:21:00,
2013-08-02 21:26:00,61.6,59.9,30.32,West,274,0.0,0.0,94,0.00,BKN,,0.44,WeatherDisplay:10.37,2013-08-03 01:26:00,
2013-08-02 21:31:00,61.5,59.8,30.32,West,274,1.2,1.2,94,0.00,BKN,,0.44,WeatherDisplay:10.37,2013-08-03 01:31:00,
2013-08-02 21:36:00,61.3,59.9,30.32,West,274,0.0,0.0,95,0.00,BKN,,0.44,WeatherDisplay:10.37,2013-08-03 01:36:00,
2013-08-02 21:41:00,61.3,59.9,30.32,West,274,0.0,0.0,95,0.00,BKN,,0.44,WeatherDisplay:10.37,2013-08-03 01:41:00,
2013-08-02 21:46:00,61.3,59.9,30.32,West,274,0.0,0.0,95,0.00,BKN,,0.44,WeatherDisplay:10.37,2013-08-03 01:46:00,
2013-08-02 21:51:00,61.3,60.2,30.33,West,274,0.0,0.0,96,0.00,BKN,,0.44,WeatherDisplay:10.37,2013-08-03 01:51:00,
2013-08-02 21:56:00,61.3,60.2,30.33,West,274,0.0,0.0,96,0.00,BKN,,0.44,WeatherDisplay:10.37,2013-08-03 01:56:00,
2013-08-02 22:01:00,61.5,60.3,30.33,West,274,0.0,0.0,96,0.00,OVC,,0.44,WeatherDisplay:10.37,2013-08-03 02:01:00,
2013-08-02 22:06:00,61.6,60.4,30.33,West,274,0.0,0.0,96,0.00,OVC,,0.44,WeatherDisplay:10.37,2013-08-03 02:06:00,
2013-08-02 22:12:00,61.7,60.5,30.34,West,274,2.3,2.3,96,0.00,OVC,,0.44,WeatherDisplay:10.37,2013-08-03 02:12:00,
2013-08-02 22:17:00,61.9,60.7,30.34,NNW,340,3.5,3.5,96,0.01,RA,,0.45,WeatherDisplay:10.37,2013-08-03 02:17:00,
2013-08-02 22:22:00,62.4,60.9,30.33,WNW,301,3.5,3.5,95,0.03,RA,,0.47,WeatherDisplay:10.37,2013-08-03 02:22:00,
2013-08-02 22:27:00,62.7,60.6,30.33,West,277,1.0,1.0,93,0.03,RA,,0.47,WeatherDisplay:10.37,2013-08-03 02:27:00,
2013-08-02 22:32:00,62.9,60.8,30.32,West,277,1.2,1.2,93,0.03,OVC,,0.47,WeatherDisplay:10.37,2013-08-03 02:32:00,
2013-08-02 22:37:00,62.8,60.7,30.33,West,277,1.2,0.0,93,0.03,OVC,,0.47,WeatherDisplay:10.37,2013-08-03 02:37:00,
2013-08-02 22:42:00,62.5,60.7,30.32,West,277,1.2,1.2,94,0.03,OVC,,0.47,WeatherDisplay:10.37,2013-08-03 02:42:00,
2013-08-02 22:47:00,62.4,60.9,30.32,West,277,1.2,1.2,95,0.03,OVC,,0.47,WeatherDisplay:10.37,2013-08-03 02:47:00,
2013-08-02 22:52:00,62.1,60.4,30.32,West,267,1.2,1.2,94,0.03,OVC,,0.47,WeatherDisplay:10.37,2013-08-03 02:52:00,
2013-08-02 22:57:00,62.0,60.3,30.32,West,267,0.0,0.0,94,0.03,OVC,,0.47,WeatherDisplay:10.37,2013-08-03 02:57:00,
2013-08-02 23:02:00,62.0,60.6,30.32,West,267,0.0,0.0,95,0.03,BKN,,0.47,WeatherDisplay:10.37,2013-08-03 03:02:00,
2013-08-02 23:07:00,62.0,60.6,30.31,West,267,1.2,1.2,95,0.03,BKN,,0.47,WeatherDisplay:10.37,2013-08-03 03:07:00,
2013-08-02 23:12:00,61.9,60.5,30.31,ESE,118,2.3,2.3,95,0.03,BKN,,0.47,WeatherDisplay:10.37,2013-08-03 03:12:00,
2013-08-02 23:18:00,62.1,60.4,30.31,ESE,118,0.0,0.0,94,0.01,BKN,,0.47,WeatherDisplay:10.37,2013-08-03 03:18:00,
2013-08-02 23:23:00,62.1,60.4,30.31,WNW,290,2.3,2.3,94,0.00,BKN,,0.47,WeatherDisplay:10.37,2013-08-03 03:23:00,
2013-08-02 23:28:00,62.2,60.5,30.30,WNW,290,1.2,1.2,94,0.00,BKN,,0.47,WeatherDisplay:10.37,2013-08-03 03:28:00,
2013-08-02 23:33:00,62.3,60.6,30.30,WNW,290,0.0,0.0,94,0.00,BKN,,0.47,WeatherDisplay:10.37,2013-08-03 03:33:00,
2013-08-02 23:38:00,62.3,60.2,30.31,WNW,290,0.0,0.0,93,0.00,BKN,,0.47,WeatherDisplay:10.37,2013-08-03 03:38:00,
2013-08-02 23:43:00,62.3,60.6,30.30,WNW,290,0.0,0.0,94,0.00,BKN,,0.47,WeatherDisplay:10.37,2013-08-03 03:43:00,
2013-08-02 23:48:00,62.2,60.8,30.31,WNW,290,1.0,0.0,95,0.00,BKN,,0.47,WeatherDisplay:10.37,2013-08-03 03:48:00,
2013-08-02 23:53:00,62.2,61.0,30.32,NW,306,1.2,1.2,96,0.01,RA,,0.48,WeatherDisplay:10.37,2013-08-03 03:53:00,
2013-08-02 23:58:00,62.1,60.9,30.32,WNW,292,1.2,0.0,96,0.02,RA,,0.50,WeatherDisplay:10.37,2013-08-03 03:58:00,